createdAt,value
2018-07-15T11:18:06.859Z,3.43
2018-07-15T11:20:37.028Z,3.63
2018-07-15T11:23:05.932Z,3.97
2018-07-15T11:25:35.298Z,3.97
2018-07-15T11:28:04.200Z,3.70
2018-07-15T11:30:34.172Z,3.77
2018-07-15T11:33:05.135Z,4.07
2018-07-15T11:35:54.435Z,4.07
2018-07-15T11:38:23.336Z,3.87
2018-07-15T11:40:54.773Z,3.63
2018-07-15T11:43:23.767Z,3.43
2018-07-15T11:45:53.132Z,3.37
2018-07-15T11:48:22.570Z,3.20
2018-07-15T11:50:53.085Z,3.80
2018-07-15T11:53:22.629Z,3.63
2018-07-15T11:55:52.990Z,3.60
2018-07-15T11:58:22.203Z,3.60
2018-07-15T12:00:51.615Z,3.30
2018-07-15T12:03:30.819Z,3.30
2018-07-15T12:06:05.127Z,3.23
2018-07-15T12:08:34.538Z,3.30
2018-07-15T12:11:03.980Z,3.20
2018-07-15T12:13:44.575Z,3.20
2018-07-15T12:16:13.956Z,3.50
2018-07-15T12:18:47.318Z,3.40
2018-07-15T12:21:16.186Z,3.13
2018-07-15T12:23:45.125Z,3.77
2018-07-15T12:26:14.046Z,3.07
2018-07-15T12:28:42.939Z,3.30
2018-07-15T12:31:11.826Z,3.13
2018-07-15T12:33:40.694Z,3.40
2018-07-15T12:36:09.568Z,3.00
2018-07-15T12:38:38.464Z,3.30
2018-07-15T12:41:07.460Z,3.33
2018-07-15T12:43:36.334Z,3.50
2018-07-15T12:46:05.365Z,3.20
2018-07-15T12:48:34.234Z,3.00
2018-07-15T12:51:03.070Z,3.20
2018-07-15T12:53:31.984Z,3.13
2018-07-15T12:56:00.843Z,3.20
2018-07-15T12:58:29.794Z,2.87
2018-07-15T13:00:59.143Z,3.40
2018-07-15T13:03:28.565Z,2.60
2018-07-15T13:05:57.910Z,3.00
2018-07-15T13:08:28.439Z,2.83
2018-07-15T13:11:05.314Z,3.23
2018-07-15T13:13:38.174Z,2.97
2018-07-15T13:16:07.647Z,3.00
2018-07-15T13:18:36.958Z,2.57
2018-07-15T13:21:06.365Z,3.10
2018-07-15T13:23:35.775Z,2.90
2018-07-15T13:26:04.960Z,3.30
2018-07-15T13:28:34.338Z,3.23
2018-07-15T13:31:04.732Z,3.57
2018-07-15T13:33:34.268Z,3.00
2018-07-15T13:36:03.598Z,3.27
2018-07-15T13:38:32.927Z,2.83
2018-07-15T13:41:02.206Z,2.80
2018-07-15T13:43:31.471Z,2.63
2018-07-15T13:46:00.925Z,2.40
2018-07-15T13:48:30.222Z,3.00
2018-07-15T13:50:59.596Z,2.47
2018-07-15T13:53:29.368Z,7.63
2018-07-15T13:55:58.889Z,19.27
2018-07-15T13:58:29.373Z,17.80
2018-07-15T14:00:58.703Z,15.80
2018-07-15T14:03:28.136Z,12.67
2018-07-15T14:05:57.479Z,8.90
2018-07-15T14:08:26.845Z,7.40
2018-07-15T14:10:56.236Z,3.90
2018-07-15T14:13:25.607Z,6.93
2018-07-15T14:15:54.954Z,4.93
2018-07-15T14:18:24.331Z,5.30
2018-07-15T14:20:53.617Z,4.17
2018-07-15T14:23:23.095Z,5.47
2018-07-15T14:25:52.321Z,5.57
2018-07-15T14:28:21.195Z,12.00
2018-07-15T14:30:50.070Z,13.67
2018-07-15T14:33:18.968Z,19.37
2018-07-15T14:35:47.815Z,12.83
2018-07-15T14:38:16.721Z,9.40
2018-07-15T14:40:45.573Z,7.97
2018-07-15T14:43:14.444Z,7.37
2018-07-15T14:45:46.275Z,7.37
2018-07-15T14:48:15.143Z,5.23
2018-07-15T14:50:44.414Z,4.67
2018-07-15T14:53:13.400Z,4.07
2018-07-15T14:55:42.226Z,2.90
2018-07-15T14:58:11.843Z,2.47
2018-07-15T15:00:40.704Z,3.07
2018-07-15T15:03:09.551Z,3.10
2018-07-15T15:05:38.407Z,2.77
2018-07-15T15:08:07.606Z,2.60
2018-07-15T15:10:36.449Z,2.60
2018-07-15T15:13:05.387Z,2.67
2018-07-15T15:15:34.262Z,2.07
2018-07-15T15:18:03.263Z,2.40
2018-07-15T15:20:32.182Z,2.93
2018-07-15T15:23:01.065Z,2.60
2018-07-15T15:25:29.887Z,2.30
2018-07-15T15:27:58.807Z,2.20
2018-07-15T15:30:27.682Z,2.37
2018-07-15T15:32:56.586Z,2.30
2018-07-15T15:35:25.481Z,2.20
2018-07-15T15:37:54.382Z,2.20
2018-07-15T15:40:23.215Z,2.07
2018-07-15T15:42:52.061Z,2.50
2018-07-15T15:45:20.949Z,2.17
2018-07-15T15:47:49.792Z,2.53
2018-07-15T15:50:18.672Z,2.00
2018-07-15T15:52:47.501Z,2.47
2018-07-15T15:55:16.373Z,2.17
2018-07-15T15:57:45.319Z,1.93
2018-07-15T16:00:14.240Z,2.20
2018-07-15T16:02:43.119Z,2.80
2018-07-15T16:05:12.007Z,2.37
2018-07-15T16:07:41.067Z,2.53
2018-07-15T16:10:09.996Z,2.33
2018-07-15T16:12:40.023Z,2.37
2018-07-15T16:15:08.917Z,2.43
2018-07-15T16:17:37.741Z,2.90
2018-07-15T16:20:07.061Z,2.47
2018-07-15T16:22:41.613Z,2.63
2018-07-15T16:25:10.481Z,2.47
2018-07-15T16:27:41.414Z,2.70
2018-07-15T16:31:56.771Z,2.40
2018-07-15T16:34:27.786Z,2.57
2018-07-15T16:36:56.810Z,2.87
2018-07-15T16:39:25.707Z,2.83
2018-07-15T16:41:55.706Z,2.80
2018-07-15T16:44:24.592Z,2.70
2018-07-15T16:46:53.463Z,3.13
2018-07-15T16:49:22.340Z,2.90
2018-07-15T16:51:51.167Z,2.60
2018-07-15T16:54:20.086Z,2.70
2018-07-15T16:56:48.930Z,2.70
2018-07-15T16:59:17.827Z,2.87
2018-07-15T17:01:46.673Z,2.87
2018-07-15T17:04:15.580Z,2.80
2018-07-15T17:06:44.421Z,2.70
2018-07-15T17:09:13.306Z,2.93
2018-07-15T17:11:42.195Z,2.57
2018-07-15T17:14:11.185Z,2.80
2018-07-15T17:16:40.056Z,2.80
2018-07-15T17:19:08.919Z,2.90
2018-07-15T17:21:39.536Z,2.53
2018-07-15T17:24:10.275Z,2.90
2018-07-15T17:26:39.271Z,2.70
2018-07-15T17:29:08.156Z,3.00
2018-07-15T17:31:37.127Z,2.70
2018-07-15T17:34:06.262Z,2.90
2018-07-15T17:36:35.194Z,2.70
2018-07-15T17:39:05.164Z,3.40
2018-07-15T17:41:34.136Z,3.27
2018-07-15T17:44:03.228Z,2.90
2018-07-15T17:46:32.231Z,3.30
2018-07-15T17:49:01.127Z,2.70
2018-07-15T17:51:30.028Z,2.63
2018-07-15T17:53:58.867Z,2.70
2018-07-15T17:56:27.734Z,2.73
2018-07-15T17:58:56.660Z,3.00
2018-07-15T18:01:25.486Z,3.37
2018-07-15T18:03:54.372Z,3.37
2018-07-15T18:06:23.264Z,2.63
2018-07-15T18:08:52.120Z,3.10
2018-07-15T18:11:21.002Z,2.73
2018-07-15T18:13:49.845Z,3.07
2018-07-15T18:16:18.714Z,2.80
2018-07-15T18:18:47.542Z,2.60
2018-07-15T18:21:16.431Z,3.03
2018-07-15T18:23:45.281Z,2.97
2018-07-15T18:26:14.159Z,2.77
2018-07-15T18:28:43.016Z,3.03
2018-07-15T18:31:11.882Z,3.33
2018-07-15T18:33:40.776Z,3.03
2018-07-15T18:36:09.638Z,3.03
2018-07-15T18:38:38.487Z,3.03
2018-07-15T18:41:07.378Z,2.97
2018-07-15T18:43:36.235Z,3.30
2018-07-15T18:46:05.380Z,3.23
2018-07-15T18:48:34.252Z,3.10
2018-07-15T18:51:03.119Z,3.00
2018-07-15T18:53:31.978Z,3.30
2018-07-15T18:56:00.860Z,3.20
2018-07-15T18:58:29.709Z,3.53
2018-07-15T19:00:58.648Z,2.97
2018-07-15T19:03:27.664Z,3.10
2018-07-15T19:05:56.759Z,2.70
2018-07-15T19:08:25.567Z,3.13
2018-07-15T19:10:54.552Z,2.93
2018-07-15T19:13:23.411Z,2.93
2018-07-15T19:15:51.922Z,3.17
2018-07-15T19:18:20.402Z,2.83
2018-07-15T19:20:49.299Z,3.20
2018-07-15T19:23:19.207Z,2.90
2018-07-15T19:25:48.103Z,3.00
2018-07-15T19:28:16.984Z,2.80
2018-07-15T19:30:45.871Z,2.90
2018-07-15T19:33:14.966Z,2.50
2018-07-15T19:35:43.891Z,2.70
2018-07-15T19:38:12.723Z,3.20
2018-07-15T19:40:41.776Z,2.60
2018-07-15T19:43:10.756Z,2.93
2018-07-15T19:45:39.668Z,2.63
2018-07-15T19:48:08.495Z,2.73
2018-07-15T19:50:37.478Z,2.67
2018-07-15T19:53:05.904Z,3.07
2018-07-15T19:55:34.840Z,2.90
2018-07-15T19:58:03.667Z,2.97
2018-07-15T20:00:32.571Z,3.13
2018-07-15T20:03:01.576Z,2.73
2018-07-15T20:05:30.511Z,2.90
2018-07-15T20:07:59.465Z,3.20
2018-07-15T20:10:28.311Z,2.93
2018-07-15T20:12:57.581Z,3.40
2018-07-15T20:15:26.427Z,2.83
2018-07-15T20:17:55.311Z,2.93
2018-07-15T20:20:24.172Z,2.47
2018-07-15T20:22:53.071Z,2.77
2018-07-15T20:25:21.910Z,3.00
2018-07-15T20:27:50.816Z,3.00
2018-07-15T20:30:19.674Z,3.27
2018-07-15T20:32:48.595Z,2.90
2018-07-15T20:35:17.468Z,2.70
2018-07-15T20:37:46.386Z,2.80
2018-07-15T20:40:15.241Z,3.00
2018-07-15T20:42:44.122Z,2.73
2018-07-15T20:45:12.960Z,3.10
2018-07-15T20:47:41.860Z,3.20
2018-07-15T20:50:10.702Z,2.93
2018-07-15T20:52:39.576Z,2.87
2018-07-15T20:55:08.694Z,3.07
2018-07-15T20:57:37.564Z,2.93
2018-07-15T21:00:06.404Z,2.87
2018-07-15T21:02:35.309Z,2.87
2018-07-15T21:05:04.226Z,3.50
2018-07-15T21:07:34.987Z,3.30
2018-07-15T21:10:03.835Z,3.23
2018-07-15T21:12:32.720Z,3.37
2018-07-15T21:15:01.563Z,3.30
2018-07-15T21:17:30.451Z,3.17
2018-07-15T21:19:58.950Z,3.33
2018-07-15T21:22:27.811Z,3.33
2018-07-15T21:24:56.679Z,3.40
2018-07-15T21:27:25.595Z,3.10
2018-07-15T21:29:54.550Z,3.23
2018-07-15T21:32:23.460Z,3.50
2018-07-15T21:34:52.335Z,3.17
2018-07-15T21:37:21.799Z,3.23
2018-07-15T21:39:50.647Z,3.07
2018-07-15T21:42:19.615Z,3.40
2018-07-15T21:44:48.479Z,3.27
2018-07-15T21:47:18.130Z,3.30
2018-07-15T21:49:46.972Z,3.53
2018-07-15T21:52:15.846Z,3.00
2018-07-15T21:54:44.711Z,3.50
2018-07-15T21:57:17.088Z,3.20
2018-07-15T21:59:45.926Z,3.30
2018-07-15T22:02:14.878Z,3.33
2018-07-15T22:04:43.736Z,3.23
2018-07-15T22:07:23.555Z,3.10
2018-07-15T22:10:16.194Z,3.77
2018-07-15T22:12:45.073Z,3.43
2018-07-15T22:15:13.931Z,3.50
2018-07-15T22:17:42.787Z,3.63
2018-07-15T22:20:11.622Z,3.50
2018-07-15T22:22:40.492Z,3.50
2018-07-15T22:25:09.372Z,3.27
2018-07-15T22:27:38.378Z,3.20
2018-07-15T22:30:07.280Z,3.37
2018-07-15T22:32:36.198Z,3.77
2018-07-15T22:35:05.124Z,3.23
2018-07-15T22:37:34.032Z,3.37
2018-07-15T22:40:02.911Z,3.30
2018-07-15T22:42:31.808Z,3.60
2018-07-15T22:45:00.648Z,3.40
2018-07-15T22:47:29.583Z,3.00
2018-07-15T22:49:58.438Z,3.53
2018-07-15T22:52:27.339Z,3.90
2018-07-15T22:54:56.202Z,3.73
2018-07-15T22:57:25.079Z,3.77
2018-07-15T22:59:53.562Z,3.90
2018-07-15T23:02:22.599Z,3.40
2018-07-15T23:06:00.594Z,3.70
2018-07-15T23:08:30.575Z,3.37
2018-07-15T23:10:59.457Z,4.07
2018-07-15T23:13:28.332Z,3.60
2018-07-15T23:15:57.538Z,3.77
2018-07-15T23:18:26.413Z,3.87
2018-07-15T23:20:55.291Z,3.80
2018-07-15T23:23:24.205Z,3.90
2018-07-15T23:25:53.089Z,4.03
2018-07-15T23:28:21.974Z,4.10
2018-07-15T23:30:50.866Z,4.07
2018-07-15T23:33:19.762Z,4.43
2018-07-15T23:35:49.979Z,3.87
2018-07-15T23:38:19.086Z,4.10
2018-07-15T23:40:48.338Z,3.90
2018-07-15T23:43:17.349Z,3.70
2018-07-15T23:45:47.086Z,3.73
2018-07-15T23:48:16.450Z,4.10
2018-07-15T23:50:45.474Z,4.03
2018-07-15T23:53:14.596Z,3.70
2018-07-15T23:55:47.179Z,3.77
2018-07-15T23:58:17.254Z,3.30
